Time;durP1;ratioP1;P1;durP2;ratioP2;P2;SDS_P1;SDS_P2;PMS_P1;PMS_P2;Temp;Humidity;BMP_temperature;BMP_pressure;BME280_temperature;BME280_humidity;BME280_pressure;Samples;Min_cycle;Max_cycle;Signal;HPM_P1;HPM_P2
2021/05/22 00:00:59;;;;;;;;;1.00;1.00;;;;;;;;3548841;39;112013;-75
2021/05/22 00:03:25;;;;;;;;;1.50;0.50;;;;;;;;3549437;39;113490;-75
2021/05/22 00:05:52;;;;;;;;;1.50;1.00;;;;;;;;3549265;39;114518;-76
2021/05/22 00:08:18;;;;;;;;;2.00;1.75;;;;;;;;3548823;39;111899;-76
2021/05/22 00:10:45;;;;;;;;;1.00;1.00;;;;;;;;3552565;39;113739;-76
2021/05/22 00:13:11;;;;;;;;;3.00;1.00;;;;;;;;3548396;39;111915;-76
2021/05/22 00:15:37;;;;;;;;;2.25;1.00;;;;;;;;3550346;39;113565;-76
2021/05/22 00:18:03;;;;;;;;;1.00;1.00;;;;;;;;3549754;39;114226;-76
2021/05/22 00:20:29;;;;;;;;;1.00;1.00;;;;;;;;3550202;39;111801;-76
2021/05/22 00:22:56;;;;;;;;;1.00;1.00;;;;;;;;3549334;39;113295;-76
2021/05/22 00:25:22;;;;;;;;;1.00;1.00;;;;;;;;3548868;39;114561;-76
2021/05/22 00:27:48;;;;;;;;;2.00;1.00;;;;;;;;3549751;39;112565;-76
2021/05/22 00:30:14;;;;;;;;;0.00;0.00;;;;;;;;3548484;39;113390;-78
2021/05/22 00:32:41;;;;;;;;;1.00;1.00;;;;;;;;3552733;39;113933;-77
2021/05/22 00:35:07;;;;;;;;;0.00;0.00;;;;;;;;3548212;39;113187;-76
2021/05/22 00:37:33;;;;;;;;;0.00;0.00;;;;;;;;3548468;39;113810;-77
2021/05/22 00:40:00;;;;;;;;;1.50;1.00;;;;;;;;3549724;39;111891;-76
2021/05/22 00:42:26;;;;;;;;;1.00;1.00;;;;;;;;3553458;39;113269;-77
2021/05/22 00:45:04;;;;;;;;;1.75;1.00;;;;;;;;3553371;39;113818;-75
2021/05/22 00:47:30;;;;;;;;;0.50;0.50;;;;;;;;3549052;39;111888;-76
2021/05/22 00:49:56;;;;;;;;;1.00;1.00;;;;;;;;3549270;39;113468;-75
2021/05/22 00:52:22;;;;;;;;;1.75;1.00;;;;;;;;3551626;39;114187;-76
2021/05/22 00:54:49;;;;;;;;;2.75;1.00;;;;;;;;3548857;39;113445;-76
2021/05/22 00:57:16;;;;;;;;;1.00;1.00;;;;;;;;3549449;39;114084;-76
2021/05/22 00:59:43;;;;;;;;;1.25;1.00;;;;;;;;3548537;39;112517;-76
2021/05/22 01:02:09;;;;;;;;;3.00;3.00;;;;;;;;3548504;39;113944;-76
2021/05/22 01:04:36;;;;;;;;;2.50;1.00;;;;;;;;3553352;39;113775;-75
2021/05/22 01:07:02;;;;;;;;;2.00;1.00;;;;;;;;3552752;39;112169;-76
2021/05/22 01:09:29;;;;;;;;;1.00;1.00;;;;;;;;3549156;39;113186;-76
2021/05/22 01:11:57;;;;;;;;;1.00;1.00;;;;;;;;3548689;39;113819;-76
2021/05/22 01:14:25;;;;;;;;;1.00;1.00;;;;;;;;3551731;39;112282;-76
2021/05/22 01:16:52;;;;;;;;;1.00;1.00;;;;;;;;3548972;39;114002;-77
2021/05/22 01:19:24;;;;;;;;;2.75;2.75;;;;;;;;3548590;39;112303;-76
2021/05/22 01:21:50;;;;;;;;;1.00;1.00;;;;;;;;3549509;39;113363;-76
2021/05/22 01:24:20;;;;;;;;;2.00;2.00;;;;;;;;3548172;39;114282;-76
2021/05/22 01:26:47;;;;;;;;;4.00;2.00;;;;;;;;3549655;39;113083;-74
2021/05/22 01:29:13;;;;;;;;;5.25;3.00;;;;;;;;3548156;39;113172;-76
2021/05/22 01:31:39;;;;;;;;;2.00;2.00;;;;;;;;3549495;39;114540;-75
2021/05/22 01:34:07;;;;;;;;;1.25;1.25;;;;;;;;3548200;39;111858;-76
2021/05/22 01:36:33;;;;;;;;;2.25;1.00;;;;;;;;3551882;39;113666;-76
2021/05/22 01:38:59;;;;;;;;;2.00;2.00;;;;;;;;3548566;39;112006;-76
2021/05/22 01:41:25;;;;;;;;;1.75;1.25;;;;;;;;3549013;39;113517;-76
2021/05/22 01:43:53;;;;;;;;;2.00;2.00;;;;;;;;3548849;39;114131;-76
2021/05/22 01:46:20;;;;;;;;;3.00;2.00;;;;;;;;3548473;39;112114;-75
2021/05/22 01:48:46;;;;;;;;;1.50;1.50;;;;;;;;3549552;39;113889;-74
2021/05/22 01:51:14;;;;;;;;;1.00;1.00;;;;;;;;3547436;39;113938;-76
2021/05/22 01:53:41;;;;;;;;;1.75;1.00;;;;;;;;3550079;39;112529;-76
2021/05/22 01:56:08;;;;;;;;;1.00;1.00;;;;;;;;3547955;39;113323;-76
2021/05/22 01:58:34;;;;;;;;;2.75;1.00;;;;;;;;3552013;39;114394;-77
2021/05/22 02:01:01;;;;;;;;;2.00;0.75;;;;;;;;3548131;39;113396;-77
2021/05/22 02:03:33;;;;;;;;;1.00;1.00;;;;;;;;3548650;39;113957;-77
2021/05/22 02:06:00;;;;;;;;;0.00;0.00;;;;;;;;3548350;39;112179;-76
2021/05/22 02:08:27;;;;;;;;;1.00;1.00;;;;;;;;3548952;39;113315;-75
2021/05/22 02:10:53;;;;;;;;;1.75;1.00;;;;;;;;3548205;39;114011;-75
2021/05/22 02:13:19;;;;;;;;;1.00;1.00;;;;;;;;3548483;39;111823;-75
2021/05/22 02:15:47;;;;;;;;;2.00;0.75;;;;;;;;3549387;39;113413;-75
2021/05/22 02:18:15;;;;;;;;;1.00;1.00;;;;;;;;3547316;39;114019;-75
2021/05/22 02:20:42;;;;;;;;;2.00;1.00;;;;;;;;3554354;39;112942;-78
2021/05/22 02:23:08;;;;;;;;;1.00;1.00;;;;;;;;3548526;39;113878;-76
2021/05/22 02:25:34;;;;;;;;;1.50;0.50;;;;;;;;3550625;39;111957;-73
2021/05/22 02:28:04;;;;;;;;;0.00;0.00;;;;;;;;3549497;39;113878;-74
2021/05/22 02:30:30;;;;;;;;;1.00;1.00;;;;;;;;3550121;39;113994;-75
2021/05/22 02:32:57;;;;;;;;;1.00;1.00;;;;;;;;3549484;39;111870;-75
2021/05/22 02:35:25;;;;;;;;;1.00;1.00;;;;;;;;3550121;39;113269;-75
2021/05/22 02:37:52;;;;;;;;;1.00;1.00;;;;;;;;3551574;39;114017;-74
2021/05/22 02:40:20;;;;;;;;;0.25;0.25;;;;;;;;3549358;39;111872;-75
2021/05/22 02:42:47;;;;;;;;;2.00;1.00;;;;;;;;3554793;39;113367;-76
2021/05/22 02:45:14;;;;;;;;;0.75;0.00;;;;;;;;3549157;39;111899;-76
2021/05/22 02:47:42;;;;;;;;;2.00;0.75;;;;;;;;3552714;39;113317;-76
2021/05/22 02:50:09;;;;;;;;;1.00;1.00;;;;;;;;3548589;39;113887;-75
2021/05/22 02:52:38;;;;;;;;;0.50;0.50;;;;;;;;3552608;39;111970;-76
2021/05/22 02:55:06;;;;;;;;;1.00;1.00;;;;;;;;3551275;39;113316;-76
2021/05/22 02:57:33;;;;;;;;;2.00;1.00;;;;;;;;3550128;39;114087;-76
2021/05/22 03:00:00;;;;;;;;;0.25;0.25;;;;;;;;3549414;39;112196;-76
2021/05/22 03:02:26;;;;;;;;;2.00;1.00;;;;;;;;3552292;39;113266;-76
2021/05/22 03:04:52;;;;;;;;;0.50;0.50;;;;;;;;3550046;39;111710;-76
2021/05/22 03:07:19;;;;;;;;;1.00;0.50;;;;;;;;3549465;39;114245;-76
2021/05/22 03:09:46;;;;;;;;;1.00;1.00;;;;;;;;3550031;39;113954;-76
2021/05/22 03:12:16;;;;;;;;;0.00;0.00;;;;;;;;3548962;39;111746;-76
2021/05/22 03:14:42;;;;;;;;;0.00;0.00;;;;;;;;3550496;39;113111;-76
2021/05/22 03:17:08;;;;;;;;;0.25;0.00;;;;;;;;3548679;39;113822;-76
2021/05/22 03:19:34;;;;;;;;;1.00;1.00;;;;;;;;3550431;39;111943;-75
2021/05/22 03:22:00;;;;;;;;;1.50;1.00;;;;;;;;3551244;39;113286;-76
2021/05/22 03:24:26;;;;;;;;;0.00;0.00;;;;;;;;3552322;39;114089;-76
2021/05/22 03:26:54;;;;;;;;;0.00;0.00;;;;;;;;3549505;39;113246;-77
2021/05/22 03:29:20;;;;;;;;;0.00;0.00;;;;;;;;3549147;39;113903;-76
2021/05/22 03:31:46;;;;;;;;;0.00;0.00;;;;;;;;3550007;39;111868;-79
2021/05/22 03:34:12;;;;;;;;;1.25;1.00;;;;;;;;3548777;39;113314;-76
2021/05/22 03:36:38;;;;;;;;;1.50;0.00;;;;;;;;3550158;39;113563;-76
2021/05/22 03:39:05;;;;;;;;;1.00;1.00;;;;;;;;3550366;39;111897;-76
2021/05/22 03:41:31;;;;;;;;;1.00;1.00;;;;;;;;3550434;39;113234;-76
2021/05/22 03:43:58;;;;;;;;;0.00;0.00;;;;;;;;3548677;39;114254;-77
2021/05/22 03:46:24;;;;;;;;;1.75;0.75;;;;;;;;3552614;39;112282;-77
2021/05/22 03:48:50;;;;;;;;;1.00;1.00;;;;;;;;3549397;39;113783;-77
2021/05/22 03:51:16;;;;;;;;;2.25;1.00;;;;;;;;3549311;39;111919;-76
2021/05/22 03:53:42;;;;;;;;;0.50;0.50;;;;;;;;3550528;39;113659;-76
2021/05/22 03:56:08;;;;;;;;;1.00;0.00;;;;;;;;3548476;39;113778;-76
2021/05/22 03:58:34;;;;;;;;;0.00;0.00;;;;;;;;3551201;39;111927;-76
2021/05/22 04:01:01;;;;;;;;;1.00;1.00;;;;;;;;3550119;39;113672;-76
2021/05/22 04:03:28;;;;;;;;;0.75;0.25;;;;;;;;3548840;39;113827;-76
2021/05/22 04:05:54;;;;;;;;;0.50;0.50;;;;;;;;3549640;39;112116;-76
2021/05/22 04:08:20;;;;;;;;;1.00;1.00;;;;;;;;3551964;39;113315;-77
2021/05/22 04:10:46;;;;;;;;;1.00;1.00;;;;;;;;3549175;39;111854;-77
2021/05/22 04:13:13;;;;;;;;;0.75;0.75;;;;;;;;3550277;39;113849;-77
2021/05/22 04:15:39;;;;;;;;;1.00;1.00;;;;;;;;3550550;39;113873;-77
2021/05/22 04:18:08;;;;;;;;;1.00;1.00;;;;;;;;3548540;39;111887;-75
2021/05/22 04:20:34;;;;;;;;;1.00;1.00;;;;;;;;3548890;39;113765;-76
2021/05/22 04:23:00;;;;;;;;;0.50;0.50;;;;;;;;3549638;39;114474;-76
2021/05/22 04:25:26;;;;;;;;;1.00;0.50;;;;;;;;3549385;39;111818;-76
2021/05/22 04:27:52;;;;;;;;;2.00;2.00;;;;;;;;3549718;39;113534;-77
2021/05/22 04:30:19;;;;;;;;;1.00;1.00;;;;;;;;3551921;39;114077;-76
2021/05/22 04:32:45;;;;;;;;;1.00;1.00;;;;;;;;3549065;39;113347;-76
2021/05/22 04:35:13;;;;;;;;;1.00;1.00;;;;;;;;3549590;39;113865;-75
2021/05/22 04:37:39;;;;;;;;;1.00;1.00;;;;;;;;3548564;39;111719;-76
2021/05/22 04:40:05;;;;;;;;;1.25;1.00;;;;;;;;3548740;39;113214;-77
2021/05/22 04:42:32;;;;;;;;;0.75;0.75;;;;;;;;3549897;39;113853;-76
2021/05/22 04:44:58;;;;;;;;;1.25;1.00;;;;;;;;3548446;39;112278;-77
2021/05/22 04:47:24;;;;;;;;;0.50;0.50;;;;;;;;3550789;39;113749;-76
2021/05/22 04:49:50;;;;;;;;;1.00;1.00;;;;;;;;3548912;39;113731;-75
2021/05/22 04:52:17;;;;;;;;;2.00;1.00;;;;;;;;3553099;39;111712;-76
2021/05/22 04:54:43;;;;;;;;;1.75;1.00;;;;;;;;3549556;39;114240;-77
2021/05/22 04:57:09;;;;;;;;;3.00;3.00;;;;;;;;3548366;39;112792;-77
2021/05/22 04:59:35;;;;;;;;;3.00;2.00;;;;;;;;3550439;39;113223;-77
2021/05/22 05:02:01;;;;;;;;;3.50;2.50;;;;;;;;3548159;39;113942;-76
2021/05/22 05:04:27;;;;;;;;;2.75;2.00;;;;;;;;3549634;39;111835;-75
2021/05/22 05:06:53;;;;;;;;;1.75;1.75;;;;;;;;3549118;39;113288;-77
2021/05/22 05:09:21;;;;;;;;;3.00;1.75;;;;;;;;3548774;39;114024;-77
2021/05/22 05:11:47;;;;;;;;;1.00;1.00;;;;;;;;3552241;39;112312;-76
2021/05/22 05:14:13;;;;;;;;;1.25;1.25;;;;;;;;3546543;39;112929;-76
2021/05/22 05:16:39;;;;;;;;;2.25;2.00;;;;;;;;3550328;39;111936;-76
2021/05/22 05:19:05;;;;;;;;;2.25;1.00;;;;;;;;3548254;39;113364;-76
2021/05/22 05:21:31;;;;;;;;;4.75;2.75;;;;;;;;3549401;39;113926;-75
2021/05/22 05:23:57;;;;;;;;;1.00;1.00;;;;;;;;3548567;39;112113;-75
2021/05/22 05:26:24;;;;;;;;;3.25;1.00;;;;;;;;3550177;39;113404;-76
2021/05/22 05:28:50;;;;;;;;;2.00;2.00;;;;;;;;3548687;39;113869;-76
2021/05/22 05:31:16;;;;;;;;;2.25;2.00;;;;;;;;3549369;39;111869;-77
2021/05/22 05:33:42;;;;;;;;;3.50;2.75;;;;;;;;3550877;39;113401;-77
2021/05/22 05:36:08;;;;;;;;;4.00;1.25;;;;;;;;3549884;39;111915;-77
2021/05/22 05:38:34;;;;;;;;;2.00;1.00;;;;;;;;3548580;39;113308;-77
2021/05/22 05:41:00;;;;;;;;;2.25;2.25;;;;;;;;3547619;39;114125;-77
2021/05/22 05:43:27;;;;;;;;;2.00;1.50;;;;;;;;3549666;39;111842;-77
2021/05/22 05:45:53;;;;;;;;;1.75;1.75;;;;;;;;3548764;39;113281;-76
2021/05/22 10:39:36;;;;;;;;;5.00;5.00;;;;;;;;3551968;39;1192729;-79
2021/05/22 10:42:03;;;;;;;;;3.75;3.75;;;;;;;;3576065;39;114163;-78
2021/05/22 10:44:32;;;;;;;;;5.00;5.00;;;;;;;;3572454;39;112202;-76
2021/05/22 10:47:06;;;;;;;;;7.75;4.75;;;;;;;;3575185;39;113164;-76
2021/05/22 10:49:52;;;;;;;;;14.25;11.00;;;;;;;;3574958;39;113778;-79
2021/05/22 10:52:19;;;;;;;;;4.25;4.25;;;;;;;;3573126;39;111869;-79
2021/05/22 10:55:04;;;;;;;;;143.75;127.25;;;;;;;;3574446;39;113667;-79
2021/05/22 10:57:32;;;;;;;;;12.25;12.25;;;;;;;;3571743;39;113992;-80
2021/05/22 11:00:18;;;;;;;;;9.00;8.50;;;;;;;;3578597;39;113355;-72
2021/05/22 11:02:46;;;;;;;;;25.75;23.50;;;;;;;;3575300;39;113812;-73
2021/05/22 11:05:32;;;;;;;;;4.00;4.00;;;;;;;;3571988;39;111973;-72
2021/05/22 11:08:12;;;;;;;;;4.75;4.75;;;;;;;;3572325;39;113348;-72
2021/05/22 11:10:40;;;;;;;;;3.25;3.25;;;;;;;;3575105;39;114163;-73
2021/05/22 11:13:07;;;;;;;;;4.25;4.25;;;;;;;;3575731;39;112186;-75
2021/05/22 11:15:42;;;;;;;;;4.00;2.50;;;;;;;;3575003;39;113212;-76
2021/05/22 11:18:09;;;;;;;;;3.00;3.00;;;;;;;;3574044;39;113944;-72
2021/05/22 11:20:36;;;;;;;;;1.00;1.00;;;;;;;;3574119;39;113113;-74
2021/05/22 11:23:02;;;;;;;;;5.00;5.00;;;;;;;;3579228;39;114168;-73
2021/05/22 11:25:44;;;;;;;;;3.50;3.50;;;;;;;;3575045;39;112702;-75
2021/05/22 11:28:17;;;;;;;;;3.75;3.25;;;;;;;;3574577;39;114528;-73
2021/05/22 11:30:44;;;;;;;;;5.00;3.00;;;;;;;;3576045;39;115882;-74
2021/05/22 11:33:11;;;;;;;;;5.00;4.25;;;;;;;;3575757;39;112027;-75
2021/05/22 11:35:38;;;;;;;;;4.50;3.50;;;;;;;;3576383;39;113834;-71
2021/05/22 11:38:23;;;;;;;;;7.00;6.00;;;;;;;;3574748;39;113842;-70
2021/05/22 11:40:51;;;;;;;;;4.75;4.00;;;;;;;;3574459;39;112057;-71
2021/05/22 11:43:30;;;;;;;;;4.75;3.75;;;;;;;;3575097;39;112641;-71
2021/05/22 11:45:57;;;;;;;;;6.50;5.00;;;;;;;;3577770;39;113975;-71
2021/05/22 11:48:23;;;;;;;;;8.00;4.00;;;;;;;;3574206;39;113180;-70
2021/05/22 11:50:50;;;;;;;;;4.00;4.00;;;;;;;;3567956;39;114046;-71
2021/05/22 11:53:17;;;;;;;;;4.00;4.00;;;;;;;;3568286;39;112314;-72
2021/05/22 11:55:44;;;;;;;;;10.50;6.00;;;;;;;;3568661;39;113647;-72
2021/05/22 11:58:12;;;;;;;;;2.00;2.00;;;;;;;;3569692;39;113931;-71
2021/05/22 12:00:38;;;;;;;;;7.75;7.75;;;;;;;;3571456;39;112518;-74
2021/05/22 12:03:05;;;;;;;;;6.00;6.00;;;;;;;;3571866;39;113153;-70
2021/05/22 12:05:38;;;;;;;;;5.00;4.00;;;;;;;;3568844;39;113807;-70
2021/05/22 12:08:04;;;;;;;;;5.00;4.50;;;;;;;;3570419;39;111894;-71
2021/05/22 12:10:30;;;;;;;;;7.00;4.50;;;;;;;;3566647;39;114144;-71
2021/05/22 12:13:00;;;;;;;;;4.00;3.00;;;;;;;;3567313;39;111848;-72
2021/05/22 12:15:28;;;;;;;;;5.25;5.00;;;;;;;;3567301;39;113300;-72
2021/05/22 12:17:54;;;;;;;;;7.50;5.50;;;;;;;;3567344;39;113822;-72
2021/05/22 12:20:20;;;;;;;;;7.50;6.00;;;;;;;;3568830;39;111792;-73
2021/05/22 12:22:46;;;;;;;;;5.25;5.25;;;;;;;;3564034;39;112306;-71
2021/05/22 12:25:13;;;;;;;;;5.00;5.00;;;;;;;;3567863;39;113829;-71
2021/05/22 12:27:39;;;;;;;;;8.75;7.50;;;;;;;;3568197;39;112231;-71
2021/05/22 12:30:07;;;;;;;;;5.50;5.50;;;;;;;;3570389;39;113073;-70
2021/05/22 12:32:34;;;;;;;;;9.00;9.00;;;;;;;;3568462;39;112440;-71
2021/05/22 12:35:01;;;;;;;;;6.00;6.00;;;;;;;;3568152;39;113262;-71
2021/05/22 12:37:28;;;;;;;;;6.25;5.25;;;;;;;;3564816;39;113567;-71
2021/05/22 12:39:57;;;;;;;;;7.00;6.50;;;;;;;;3568907;39;112038;-72
2021/05/22 12:42:25;;;;;;;;;6.75;5.50;;;;;;;;3568856;39;113249;-73
2021/05/22 12:44:52;;;;;;;;;4.00;4.00;;;;;;;;3568535;39;113819;-72
2021/05/22 12:47:18;;;;;;;;;7.75;7.75;;;;;;;;3569418;39;112175;-74
2021/05/22 12:49:52;;;;;;;;;4.25;3.50;;;;;;;;3568883;39;114071;-73
2021/05/22 12:52:18;;;;;;;;;6.00;6.00;;;;;;;;3569171;39;112942;-72
2021/05/22 12:54:45;;;;;;;;;5.75;5.25;;;;;;;;3568976;39;113448;-72
2021/05/22 12:57:12;;;;;;;;;6.25;5.75;;;;;;;;3568886;39;114054;-74
2021/05/22 12:59:39;;;;;;;;;8.00;7.00;;;;;;;;3568019;39;112351;-73
2021/05/22 13:02:22;;;;;;;;;7.00;5.00;;;;;;;;3568711;39;113209;-73
2021/05/22 13:04:49;;;;;;;;;8.50;7.50;;;;;;;;3568376;39;114012;-74
2021/05/22 13:07:17;;;;;;;;;6.00;6.00;;;;;;;;3567196;39;112305;-74
2021/05/22 13:09:50;;;;;;;;;7.00;5.25;;;;;;;;3568509;39;113255;-74
2021/05/22 13:12:16;;;;;;;;;6.00;6.00;;;;;;;;3570242;39;113846;-72
2021/05/22 13:14:43;;;;;;;;;6.00;5.50;;;;;;;;3570222;39;113602;-72
2021/05/22 13:17:27;;;;;;;;;7.25;5.00;;;;;;;;3580358;39;112134;-70
2021/05/22 13:19:54;;;;;;;;;2.75;2.50;;;;;;;;3565285;39;113793;-73
2021/05/22 13:22:38;;;;;;;;;5.50;3.75;;;;;;;;3565621;39;112372;-79
2021/05/22 13:25:06;;;;;;;;;6.50;5.50;;;;;;;;3566035;39;112784;-79
2021/05/22 13:27:33;;;;;;;;;5.50;4.50;;;;;;;;3564562;39;112906;-79
2021/05/22 13:30:00;;;;;;;;;5.50;3.75;;;;;;;;3566746;39;111987;-78
2021/05/22 13:32:27;;;;;;;;;4.00;4.00;;;;;;;;3563638;39;112159;-77
2021/05/22 13:34:53;;;;;;;;;3.75;3.75;;;;;;;;3565881;39;113975;-73
2021/05/22 13:37:20;;;;;;;;;5.50;4.25;;;;;;;;3571529;39;112857;-73
2021/05/22 13:39:46;;;;;;;;;3.00;3.00;;;;;;;;3565258;39;113754;-73
2021/05/22 13:42:13;;;;;;;;;4.50;3.50;;;;;;;;3567269;39;111751;-73
2021/05/22 13:44:39;;;;;;;;;2.75;2.75;;;;;;;;3565611;39;113965;-72
2021/05/22 13:47:06;;;;;;;;;8.00;4.00;;;;;;;;3566575;39;113849;-74
2021/05/22 13:49:34;;;;;;;;;3.25;2.25;;;;;;;;3570287;39;112427;-73
2021/05/22 13:52:00;;;;;;;;;3.00;3.00;;;;;;;;3565649;39;113655;-72
2021/05/22 13:54:26;;;;;;;;;4.50;4.00;;;;;;;;3565121;39;113867;-72
2021/05/22 13:56:53;;;;;;;;;5.00;4.00;;;;;;;;3565652;39;111980;-71
2021/05/22 13:59:19;;;;;;;;;4.00;4.00;;;;;;;;3568352;39;113955;-72
2021/05/22 14:01:45;;;;;;;;;4.50;4.50;;;;;;;;3565557;39;111984;-72
2021/05/22 14:04:11;;;;;;;;;7.00;4.00;;;;;;;;3565174;39;113633;-71
2021/05/22 14:06:38;;;;;;;;;7.50;3.75;;;;;;;;3565111;39;114260;-72
2021/05/22 14:09:05;;;;;;;;;4.75;4.75;;;;;;;;3566368;39;111976;-71
2021/05/22 14:11:31;;;;;;;;;5.25;4.75;;;;;;;;3566008;39;113382;-71
2021/05/22 14:13:57;;;;;;;;;5.00;5.00;;;;;;;;3564739;39;113779;-72
2021/05/22 14:16:24;;;;;;;;;9.25;4.00;;;;;;;;3565478;39;111910;-72
2021/05/22 14:18:50;;;;;;;;;4.25;4.25;;;;;;;;3565244;39;112541;-73
2021/05/22 14:21:16;;;;;;;;;2.25;2.00;;;;;;;;3567689;39;113851;-73
2021/05/22 14:23:46;;;;;;;;;5.75;4.75;;;;;;;;3567096;39;113721;-72
2021/05/22 14:26:12;;;;;;;;;4.75;4.00;;;;;;;;3564935;39;113891;-73
2021/05/22 14:28:43;;;;;;;;;8.25;5.00;;;;;;;;3563188;39;111975;-73
2021/05/22 14:31:10;;;;;;;;;4.50;4.25;;;;;;;;3562260;39;113212;-73
2021/05/22 14:33:36;;;;;;;;;6.25;4.00;;;;;;;;3562549;39;113916;-72
2021/05/22 14:36:02;;;;;;;;;5.50;5.50;;;;;;;;3560763;39;113218;-74
2021/05/22 14:38:28;;;;;;;;;7.00;4.00;;;;;;;;3559867;39;113561;-73
2021/05/22 14:40:55;;;;;;;;;7.00;7.00;;;;;;;;3559498;39;114966;-74
2021/05/22 14:43:21;;;;;;;;;5.50;5.25;;;;;;;;3561475;39;111878;-76
2021/05/22 14:45:49;;;;;;;;;8.25;6.50;;;;;;;;3560660;39;113647;-73
2021/05/22 14:48:16;;;;;;;;;9.25;5.50;;;;;;;;3559896;39;111941;-77
2021/05/22 14:50:42;;;;;;;;;7.75;7.00;;;;;;;;3558423;39;113307;-77
2021/05/22 14:53:08;;;;;;;;;7.00;6.75;;;;;;;;3559666;39;113813;-73
2021/05/22 14:55:34;;;;;;;;;8.00;4.00;;;;;;;;3559751;39;112154;-72
2021/05/22 14:58:01;;;;;;;;;5.00;5.00;;;;;;;;3558847;39;113596;-73
2021/05/22 15:00:28;;;;;;;;;6.50;5.00;;;;;;;;3557539;39;115009;-73
2021/05/22 15:02:55;;;;;;;;;4.00;4.00;;;;;;;;3558899;39;111812;-72
2021/05/22 15:05:21;;;;;;;;;7.25;6.00;;;;;;;;3560207;39;113532;-73
2021/05/22 15:07:47;;;;;;;;;8.25;6.50;;;;;;;;3560030;39;112460;-74
2021/05/22 15:10:14;;;;;;;;;7.25;7.00;;;;;;;;3561219;39;113251;-71
2021/05/22 15:12:40;;;;;;;;;7.25;4.00;;;;;;;;3557941;39;114126;-70
2021/05/22 15:15:08;;;;;;;;;5.00;4.00;;;;;;;;3559870;39;112274;-71
2021/05/22 15:17:34;;;;;;;;;5.25;4.00;;;;;;;;3558455;39;113600;-73
2021/05/22 15:20:00;;;;;;;;;8.75;5.50;;;;;;;;3558826;39;113668;-76
2021/05/22 15:22:26;;;;;;;;;8.00;7.00;;;;;;;;3555843;39;112164;-78
2021/05/22 15:24:53;;;;;;;;;5.50;5.50;;;;;;;;3559285;39;113906;-78
2021/05/22 15:27:19;;;;;;;;;10.25;8.50;;;;;;;;3561551;39;111938;-75
2021/05/22 15:29:45;;;;;;;;;11.00;8.50;;;;;;;;3558485;39;113257;-81
2021/05/22 15:32:12;;;;;;;;;9.00;9.00;;;;;;;;3556076;39;112966;-73
2021/05/22 15:34:38;;;;;;;;;10.25;8.75;;;;;;;;3559965;39;111866;-75
2021/05/22 15:37:04;;;;;;;;;7.50;7.50;;;;;;;;3558962;39;112491;-78
2021/05/22 15:39:31;;;;;;;;;7.75;7.00;;;;;;;;3556406;39;114162;-78
2021/05/22 15:41:57;;;;;;;;;7.50;5.00;;;;;;;;3558887;39;111991;-75
2021/05/22 15:44:26;;;;;;;;;6.00;4.50;;;;;;;;3559981;39;113841;-79
2021/05/22 15:46:55;;;;;;;;;7.00;5.25;;;;;;;;3562400;39;113950;-81
2021/05/22 15:58:03;;;;;;;;;8.25;7.25;;;;;;;;3558275;39;112578;-72
2021/05/22 16:00:29;;;;;;;;;11.50;7.00;;;;;;;;3557257;39;114824;-73
2021/05/22 16:05:46;;;;;;;;;9.00;5.25;;;;;;;;3556176;39;112516;-74
2021/05/22 16:08:12;;;;;;;;;11.50;7.00;;;;;;;;3560435;39;114396;-73
2021/05/22 16:10:38;;;;;;;;;7.75;7.00;;;;;;;;3565039;39;111982;-75
2021/05/22 16:13:05;;;;;;;;;8.00;8.00;;;;;;;;3558190;39;112879;-71
2021/05/22 16:15:31;;;;;;;;;8.50;8.50;;;;;;;;3559264;39;112251;-74
2021/05/22 16:17:57;;;;;;;;;10.25;8.25;;;;;;;;3560064;39;113213;-71
2021/05/22 16:20:23;;;;;;;;;8.75;8.75;;;;;;;;3558867;39;114818;-71
2021/05/22 16:22:51;;;;;;;;;11.25;9.25;;;;;;;;3559110;39;111832;-72
2021/05/22 16:25:17;;;;;;;;;11.00;7.50;;;;;;;;3558096;39;113209;-75
2021/05/22 16:27:43;;;;;;;;;6.25;6.25;;;;;;;;3559641;39;113876;-76
2021/05/22 16:30:10;;;;;;;;;7.00;7.00;;;;;;;;3558060;39;111804;-71
2021/05/22 16:32:36;;;;;;;;;8.00;7.00;;;;;;;;3561764;39;113334;-71
2021/05/22 16:35:03;;;;;;;;;9.00;9.00;;;;;;;;3556837;39;112053;-73
2021/05/22 16:37:29;;;;;;;;;11.25;9.75;;;;;;;;3558927;39;113188;-74
2021/05/22 16:39:56;;;;;;;;;13.75;13.75;;;;;;;;3557109;39;114218;-75
2021/05/22 16:42:22;;;;;;;;;9.75;8.50;;;;;;;;3558404;39;113680;-73
2021/05/22 16:44:50;;;;;;;;;10.00;9.00;;;;;;;;3559370;39;113148;-72
2021/05/22 16:47:16;;;;;;;;;9.00;7.75;;;;;;;;3557576;39;114106;-73
2021/05/22 16:49:42;;;;;;;;;7.50;7.50;;;;;;;;3558413;39;112082;-75
2021/05/22 16:52:08;;;;;;;;;8.75;7.50;;;;;;;;3557810;39;113325;-69
2021/05/22 16:54:35;;;;;;;;;7.50;7.50;;;;;;;;3563936;39;114494;-76
2021/05/22 16:57:02;;;;;;;;;7.00;7.00;;;;;;;;3561811;39;113283;-73
2021/05/22 16:59:28;;;;;;;;;10.25;9.50;;;;;;;;3561291;39;115326;-72
2021/05/22 17:01:54;;;;;;;;;10.75;9.50;;;;;;;;3557689;39;111889;-72
2021/05/22 17:04:20;;;;;;;;;9.50;9.50;;;;;;;;3561351;39;113220;-73
2021/05/22 17:06:46;;;;;;;;;11.00;10.50;;;;;;;;3560815;39;113990;-74
2021/05/22 17:09:13;;;;;;;;;14.75;9.75;;;;;;;;3558837;39;112089;-76
2021/05/22 17:11:41;;;;;;;;;13.50;10.00;;;;;;;;3556006;39;113608;-72
2021/05/22 17:14:09;;;;;;;;;10.00;9.00;;;;;;;;3561058;39;113865;-77
2021/05/22 17:16:35;;;;;;;;;14.50;13.00;;;;;;;;3562719;39;112206;-78
2021/05/22 17:19:01;;;;;;;;;11.75;9.50;;;;;;;;3555991;39;113155;-85
2021/05/22 17:21:27;;;;;;;;;14.75;12.00;;;;;;;;3555426;39;112310;-78
2021/05/22 17:23:53;;;;;;;;;12.00;11.75;;;;;;;;3560580;39;113434;-77
2021/05/22 17:26:20;;;;;;;;;10.50;9.50;;;;;;;;3559143;39;114049;-77
2021/05/22 17:28:46;;;;;;;;;12.50;9.00;;;;;;;;3561509;39;112387;-86
2021/05/22 17:31:13;;;;;;;;;13.75;12.75;;;;;;;;3560952;39;113310;-85
2021/05/22 17:33:40;;;;;;;;;10.00;9.75;;;;;;;;3559590;39;112924;-86
2021/05/22 17:36:06;;;;;;;;;16.25;14.75;;;;;;;;3564305;39;111945;-88
2021/05/22 17:38:33;;;;;;;;;14.50;13.00;;;;;;;;3560363;39;113557;-85
2021/05/22 17:40:59;;;;;;;;;12.00;9.75;;;;;;;;3561379;39;112114;-82
2021/05/22 17:43:26;;;;;;;;;14.25;14.00;;;;;;;;3558449;39;113049;-79
2021/05/22 17:45:53;;;;;;;;;13.50;12.25;;;;;;;;3558081;39;114015;-74
2021/05/22 17:48:20;;;;;;;;;20.75;13.75;;;;;;;;3557584;39;112216;-73
2021/05/22 17:50:46;;;;;;;;;21.00;19.00;;;;;;;;3558797;39;113208;-73
2021/05/22 17:53:12;;;;;;;;;21.00;20.00;;;;;;;;3557879;39;114147;-76
2021/05/22 17:55:44;;;;;;;;;26.00;21.75;;;;;;;;3557580;39;112341;-76
2021/05/22 17:58:11;;;;;;;;;22.50;19.50;;;;;;;;3559104;39;113945;-73
2021/05/22 18:00:37;;;;;;;;;22.50;20.00;;;;;;;;3558281;39;112008;-75
2021/05/22 18:03:03;;;;;;;;;29.00;24.50;;;;;;;;3558100;39;113178;-76
2021/05/22 18:05:30;;;;;;;;;24.00;24.00;;;;;;;;3558356;39;113239;-77
2021/05/22 18:07:56;;;;;;;;;20.50;18.50;;;;;;;;3563624;39;112733;-80
2021/05/22 18:10:23;;;;;;;;;21.75;20.25;;;;;;;;3563537;39;113286;-80
2021/05/22 18:12:50;;;;;;;;;31.75;25.50;;;;;;;;3561345;39;113929;-78
2021/05/22 18:15:17;;;;;;;;;23.25;21.00;;;;;;;;3560620;39;113367;-80
2021/05/22 18:17:43;;;;;;;;;21.00;19.75;;;;;;;;3562091;39;113371;-79
2021/05/22 18:20:11;;;;;;;;;19.25;18.25;;;;;;;;3562505;39;114097;-75
2021/05/22 18:22:38;;;;;;;;;23.75;21.25;;;;;;;;3559676;39;113602;-80
2021/05/22 18:25:05;;;;;;;;;24.00;21.00;;;;;;;;3562119;39;113997;-75
2021/05/22 18:27:31;;;;;;;;;21.00;20.00;;;;;;;;3559404;39;112080;-79
2021/05/22 18:29:58;;;;;;;;;22.25;22.25;;;;;;;;3559534;39;113293;-79
2021/05/22 18:32:25;;;;;;;;;22.25;20.25;;;;;;;;3558757;39;114503;-76
2021/05/22 18:34:51;;;;;;;;;23.00;18.00;;;;;;;;3559591;39;112031;-75
2021/05/22 18:37:17;;;;;;;;;20.00;17.00;;;;;;;;3560172;39;113137;-77
2021/05/22 18:39:45;;;;;;;;;19.00;17.00;;;;;;;;3559541;39;113950;-76
2021/05/22 18:42:14;;;;;;;;;19.50;18.00;;;;;;;;3565292;39;112054;-78
2021/05/22 18:44:41;;;;;;;;;20.00;18.00;;;;;;;;3562229;39;113918;-77
2021/05/22 18:47:08;;;;;;;;;20.75;17.50;;;;;;;;3563269;39;112078;-75
2021/05/22 18:49:38;;;;;;;;;12.00;9.25;;;;;;;;3564034;39;113895;-75
2021/05/22 18:52:05;;;;;;;;;17.75;14.00;;;;;;;;3563069;39;113953;-76
2021/05/22 18:54:31;;;;;;;;;14.50;13.00;;;;;;;;3563398;39;111927;-75
2021/05/22 18:56:58;;;;;;;;;19.50;16.00;;;;;;;;3560454;39;112689;-77
2021/05/22 18:59:24;;;;;;;;;16.50;15.00;;;;;;;;3559064;39;115168;-75
2021/05/22 19:01:50;;;;;;;;;15.25;14.75;;;;;;;;3558837;39;112115;-74
2021/05/22 19:04:16;;;;;;;;;14.50;14.00;;;;;;;;3561831;39;113300;-74
2021/05/22 19:06:42;;;;;;;;;14.00;13.75;;;;;;;;3560418;39;112458;-73
2021/05/22 19:09:08;;;;;;;;;16.25;10.25;;;;;;;;3560988;39;113635;-74
2021/05/22 19:11:35;;;;;;;;;22.75;19.75;;;;;;;;3562367;39;114223;-74
2021/05/22 19:14:02;;;;;;;;;22.50;22.00;;;;;;;;3556390;39;113541;-74
2021/05/22 19:16:28;;;;;;;;;29.75;28.00;;;;;;;;3559031;39;113395;-73
2021/05/22 19:18:54;;;;;;;;;26.25;21.00;;;;;;;;3560286;39;113936;-74
2021/05/22 19:21:23;;;;;;;;;18.50;14.00;;;;;;;;3563271;39;111865;-74
2021/05/22 19:23:50;;;;;;;;;15.50;14.25;;;;;;;;3563522;39;113304;-73
2021/05/22 19:26:16;;;;;;;;;9.00;8.75;;;;;;;;3565411;39;113988;-74
2021/05/22 19:28:42;;;;;;;;;13.00;10.00;;;;;;;;3563513;39;112899;-74